首页
METAR-TAF:

METAR-TAF

机场 :

蒂米什瓦拉, 罗马尼亚

纬度: 45-46N, 经度: 021-15E, 海拔: 86米

当前天气观测

该预报发布于43分钟前的01:00 UTC
风速7节,风向
温度 10°C
湿度 87%
气压 1019 hPa
能見度: 8000

METAR: LRTR 200100Z 10007KT 8000 NSC 10/08 Q1019 NOSIG

时间: 04:43 (01:43 UTC)

预报

该预报发布于2小时和43分钟前的23:00 UTC
预报有效从20日的 00点(UTC)到 20日的 24点(UTC)
风速5节,风向
能见度10公里或以上
1500米以下无云,无积雨云
短暂存在
从 20日的 01点(UTC)到 20日的 04点(UTC)
能見度: 3000
轻雾
成为
从 20日的 06点(UTC)到 20日的 08点(UTC)
风速10节,风向东南
成为
从 20日的 10点(UTC)到 20日的 12点(UTC)
风速10节,风向南转西南
成为
从 20日的 21点(UTC)到 20日的 23点(UTC)
风速5节,风向东转东南

TAF: LRTR 192300Z 2000/2024 08005KT CAVOK TEMPO 2001/2004 3000 BR BECMG 2006/2008 14010KT BECMG 2010/2012 20010KT BECMG 2021/2023 12005KT

超过4000个机场的气象观测和天气预报(METAR&TAF报告)。

可查询的气象台以黄色和红色小点在地图上表示。

将鼠标移到小点上方,可查看气象台名称。

然后点击查看天气观测和预报。

如需切换地图:点击带黑十字的绿色按钮放大地图;点击带横线的绿色按钮缩小地图;或者点击绿色箭头查看邻近地区的地图。


METAR-TAF: